createdAt,value
2019-02-16T00:00:35.532Z,1017.48
2019-02-16T00:01:35.488Z,1017.51
2019-02-16T00:02:35.499Z,1017.48
2019-02-16T00:03:36.223Z,1017.51
2019-02-16T00:04:35.457Z,1017.54
2019-02-16T00:05:35.442Z,1017.53
2019-02-16T00:06:35.474Z,1017.55
2019-02-16T00:07:34.420Z,1017.55
2019-02-16T00:08:35.409Z,1017.52
2019-02-16T00:09:34.437Z,1017.49
2019-02-16T00:10:35.384Z,1017.46
2019-02-16T00:11:34.380Z,1017.49
2019-02-16T00:12:35.364Z,1017.48
2019-02-16T00:13:35.357Z,1017.45
2019-02-16T00:14:34.350Z,1017.48
2019-02-16T00:15:35.379Z,1017.48
2019-02-16T00:16:35.329Z,1017.50
2019-02-16T00:17:35.312Z,1017.45
2019-02-16T00:18:35.303Z,1017.46
2019-02-16T00:19:35.298Z,1017.44
2019-02-16T00:20:35.284Z,1017.45
2019-02-16T00:21:35.320Z,1017.43
2019-02-16T00:22:34.260Z,1017.37
2019-02-16T00:24:34.240Z,1017.42
2019-02-16T00:25:35.258Z,1017.39
2019-02-16T00:26:35.246Z,1017.43
2019-02-16T00:27:35.202Z,1017.43
2019-02-16T00:28:35.202Z,1017.42
2019-02-16T00:29:35.185Z,1017.44
2019-02-16T00:30:34.171Z,1017.42
2019-02-16T00:31:35.178Z,1017.44
2019-02-16T00:32:35.176Z,1017.46
2019-02-16T00:33:35.142Z,1017.39
2019-02-16T00:34:35.120Z,1017.43
2019-02-16T00:35:34.129Z,1017.41
2019-02-16T00:36:35.112Z,1017.39
2019-02-16T00:37:35.099Z,1017.41
2019-02-16T00:38:35.091Z,1017.36
2019-02-16T00:39:35.082Z,1017.33
2019-02-16T00:40:35.065Z,1017.33
2019-02-16T00:41:35.050Z,1017.32
2019-02-16T00:42:35.040Z,1017.27
2019-02-16T00:43:35.026Z,1017.32
2019-02-16T00:44:35.061Z,1017.30
2019-02-16T00:45:37.496Z,1017.34
2019-02-16T00:46:35.002Z,1017.28
2019-02-16T00:47:34.982Z,1017.31
2019-02-16T00:48:34.972Z,1017.31
2019-02-16T00:49:33.974Z,1017.32
2019-02-16T00:50:33.957Z,1017.32
2019-02-16T00:51:34.974Z,1017.29
2019-02-16T00:52:34.932Z,1017.29
2019-02-16T00:53:34.924Z,1017.24
2019-02-16T00:54:34.926Z,1017.21
2019-02-16T00:55:35.542Z,1017.22
2019-02-16T00:56:34.896Z,1017.25
2019-02-16T00:57:33.880Z,1017.21
2019-02-16T00:58:34.867Z,1017.15
2019-02-16T00:59:33.864Z,1017.17
2019-02-16T01:00:33.886Z,1017.20
2019-02-16T01:01:37.492Z,1017.14
2019-02-16T01:02:34.820Z,1017.16
2019-02-16T01:03:33.809Z,1017.14
2019-02-16T01:04:34.804Z,1017.14
2019-02-16T01:05:34.796Z,1017.11
2019-02-16T01:06:34.784Z,1017.15
2019-02-16T01:07:33.764Z,1017.09
2019-02-16T01:08:33.758Z,1017.16
2019-02-16T01:09:34.783Z,1017.08
2019-02-16T01:10:34.740Z,1017.06
2019-02-16T01:11:33.726Z,1017.10
2019-02-16T01:12:33.714Z,1017.09
2019-02-16T01:13:33.706Z,1017.07
2019-02-16T01:14:34.702Z,1017.04
2019-02-16T01:15:34.715Z,1017.08
2019-02-16T01:16:34.674Z,1017.04
2019-02-16T01:17:33.667Z,1016.97
2019-02-16T01:18:33.653Z,1016.96
2019-02-16T01:19:34.636Z,1016.99
2019-02-16T01:20:38.487Z,1016.91
2019-02-16T01:21:34.612Z,1016.92
2019-02-16T01:22:33.608Z,1016.88
2019-02-16T01:23:34.594Z,1016.88
2019-02-16T01:24:34.577Z,1016.87
2019-02-16T01:25:37.484Z,1016.87
2019-02-16T01:26:34.565Z,1016.81
2019-02-16T01:27:33.557Z,1016.78
2019-02-16T01:28:34.538Z,1016.81
2019-02-16T01:29:34.531Z,1016.81
2019-02-16T01:30:34.533Z,1016.77
2019-02-16T01:31:34.549Z,1016.70
2019-02-16T01:32:33.513Z,1016.66
2019-02-16T01:33:34.494Z,1016.71
2019-02-16T01:34:33.485Z,1016.69
2019-02-16T01:35:34.479Z,1016.71
2019-02-16T01:36:34.481Z,1016.67
2019-02-16T01:37:34.462Z,1016.62
2019-02-16T01:38:33.445Z,1016.61
2019-02-16T01:39:35.979Z,1016.61
2019-02-16T01:40:33.424Z,1016.62
2019-02-16T01:41:34.432Z,1016.63
2019-02-16T01:42:34.402Z,1016.63
2019-02-16T01:43:34.394Z,1016.65
2019-02-16T01:44:34.380Z,1016.58
2019-02-16T01:45:33.354Z,1016.68
2019-02-16T01:46:34.386Z,1016.63
2019-02-16T01:47:34.344Z,1016.65
2019-02-16T01:48:33.333Z,1016.64
2019-02-16T01:49:34.361Z,1016.63
2019-02-16T01:50:33.300Z,1016.60
2019-02-16T01:51:33.300Z,1016.59
2019-02-16T01:52:34.288Z,1016.59
2019-02-16T01:53:34.280Z,1016.60
2019-02-16T01:54:34.262Z,1016.57
2019-02-16T01:55:34.294Z,1016.54
2019-02-16T01:56:33.287Z,1016.56
2019-02-16T01:57:34.230Z,1016.56
2019-02-16T01:58:34.227Z,1016.53
2019-02-16T01:59:33.218Z,1016.53
2019-02-16T02:00:34.203Z,1016.50
2019-02-16T02:02:33.202Z,1016.49
2019-02-16T02:03:34.167Z,1016.53
2019-02-16T02:04:34.156Z,1016.44
2019-02-16T02:05:34.146Z,1016.41
2019-02-16T02:06:34.146Z,1016.48
2019-02-16T02:07:33.158Z,1016.40
2019-02-16T02:08:36.975Z,1016.39
2019-02-16T02:09:34.973Z,1016.41
2019-02-16T02:10:33.093Z,1016.40
2019-02-16T02:11:34.082Z,1016.40
2019-02-16T02:12:34.115Z,1016.35
2019-02-16T02:13:34.057Z,1016.35
2019-02-16T02:14:34.066Z,1016.33
2019-02-16T02:15:34.048Z,1016.36
2019-02-16T02:16:33.032Z,1016.36
2019-02-16T02:17:34.030Z,1016.36
2019-02-16T02:18:34.045Z,1016.37
2019-02-16T02:19:33.994Z,1016.37
2019-02-16T02:20:32.984Z,1016.41
2019-02-16T02:21:40.979Z,1016.38
2019-02-16T02:22:36.479Z,1016.35
2019-02-16T02:23:33.951Z,1016.36
2019-02-16T02:24:33.970Z,1016.35
2019-02-16T02:25:32.938Z,1016.37
2019-02-16T02:26:33.926Z,1016.33
2019-02-16T02:27:33.904Z,1016.36
2019-02-16T02:28:33.897Z,1016.32
2019-02-16T02:29:33.891Z,1016.29
2019-02-16T02:30:33.901Z,1016.29
2019-02-16T02:31:32.890Z,1016.32
2019-02-16T02:32:32.863Z,1016.25
2019-02-16T02:33:32.846Z,1016.25
2019-02-16T02:34:33.846Z,1016.22
2019-02-16T02:35:33.836Z,1016.22
2019-02-16T02:36:32.811Z,1016.24
2019-02-16T02:37:33.812Z,1016.23
2019-02-16T02:38:33.792Z,1016.22
2019-02-16T02:39:32.813Z,1016.21
2019-02-16T02:40:33.770Z,1016.24
2019-02-16T02:41:32.763Z,1016.25
2019-02-16T02:42:33.750Z,1016.31
2019-02-16T02:43:33.739Z,1016.29
2019-02-16T02:45:32.710Z,1016.32
2019-02-16T02:46:33.702Z,1016.28
2019-02-16T02:47:33.710Z,1016.33
2019-02-16T02:48:33.674Z,1016.26
2019-02-16T02:49:33.672Z,1016.24
2019-02-16T02:50:33.696Z,1016.22
2019-02-16T02:51:32.662Z,1016.20
2019-02-16T02:52:36.461Z,1016.21
2019-02-16T02:53:33.626Z,1016.20
2019-02-16T02:54:33.616Z,1016.19
2019-02-16T02:56:32.639Z,1016.19
2019-02-16T02:57:32.584Z,1016.21
2019-02-16T02:58:33.578Z,1016.15
2019-02-16T02:59:32.570Z,1016.15
2019-02-16T03:00:33.557Z,1016.17
2019-02-16T03:01:32.541Z,1016.19
2019-02-16T03:02:33.572Z,1016.07
2019-02-16T03:03:33.518Z,1016.06
2019-02-16T03:04:33.519Z,1016.05
2019-02-16T03:05:33.494Z,1016.09
2019-02-16T03:06:32.488Z,1016.09
2019-02-16T03:07:33.488Z,1016.08
2019-02-16T03:08:33.468Z,1016.10
2019-02-16T03:09:33.458Z,1016.08
2019-02-16T03:10:34.113Z,1016.08
2019-02-16T03:11:32.452Z,1016.04
2019-02-16T03:12:33.457Z,1016.07
2019-02-16T03:13:33.409Z,1016.05
2019-02-16T03:14:32.409Z,1016.08
2019-02-16T03:15:33.390Z,1016.07
2019-02-16T03:16:33.378Z,1016.10
2019-02-16T03:17:34.004Z,1016.08
2019-02-16T03:18:33.364Z,1016.07
2019-02-16T03:19:33.350Z,1016.07
2019-02-16T03:20:33.335Z,1016.09
2019-02-16T03:21:33.330Z,1016.09
2019-02-16T03:22:32.342Z,1016.12
2019-02-16T03:23:33.352Z,1016.07
2019-02-16T03:24:32.293Z,1016.12
2019-02-16T03:25:33.288Z,1016.09
2019-02-16T03:26:33.266Z,1016.10
2019-02-16T03:27:32.268Z,1016.10
2019-02-16T03:28:33.249Z,1016.05
2019-02-16T03:29:33.279Z,1016.08
2019-02-16T03:30:32.229Z,1016.10
2019-02-16T03:31:33.218Z,1016.10
2019-02-16T03:32:33.254Z,1016.06
2019-02-16T03:33:33.193Z,1016.12
2019-02-16T03:34:33.186Z,1016.10
2019-02-16T03:35:33.170Z,1016.07
2019-02-16T03:36:33.159Z,1016.06
2019-02-16T03:37:32.147Z,1016.00
2019-02-16T03:38:33.169Z,1016.05
2019-02-16T03:39:33.122Z,1016.03
2019-02-16T03:40:33.120Z,1016.02
2019-02-16T03:41:32.109Z,1016.04
2019-02-16T03:42:33.100Z,1015.97
2019-02-16T03:43:33.089Z,1015.99
2019-02-16T03:44:32.126Z,1015.96
2019-02-16T03:45:33.062Z,1015.91
2019-02-16T03:46:33.052Z,1015.91
2019-02-16T03:47:33.039Z,1015.90
2019-02-16T03:48:32.028Z,1015.86
2019-02-16T03:49:34.936Z,1015.95
2019-02-16T03:50:33.032Z,1015.95
2019-02-16T03:51:33.003Z,1015.93
2019-02-16T03:52:33.006Z,1015.94
2019-02-16T03:53:32.983Z,1015.91
2019-02-16T03:54:32.972Z,1015.95
2019-02-16T03:55:32.962Z,1015.91
2019-02-16T03:56:32.945Z,1015.91
2019-02-16T03:57:31.952Z,1015.93
2019-02-16T03:58:32.920Z,1015.90
2019-02-16T03:59:33.483Z,1015.91
2019-02-16T04:00:32.907Z,1015.86
2019-02-16T04:01:32.890Z,1015.87
2019-02-16T04:02:32.884Z,1015.79
2019-02-16T04:03:32.440Z,1015.80
2019-02-16T04:04:31.863Z,1015.85
2019-02-16T04:05:32.866Z,1015.79
2019-02-16T04:06:31.847Z,1015.80
2019-02-16T04:07:32.830Z,1015.81
2019-02-16T04:08:32.839Z,1015.82
2019-02-16T04:09:31.804Z,1015.81
2019-02-16T04:10:32.790Z,1015.83
2019-02-16T04:11:32.786Z,1015.81
2019-02-16T04:12:32.768Z,1015.79
2019-02-16T04:13:32.762Z,1015.84
2019-02-16T04:14:31.783Z,1015.84
2019-02-16T04:15:32.740Z,1015.81
2019-02-16T04:16:31.721Z,1015.85
2019-02-16T04:17:32.736Z,1015.81
2019-02-16T04:18:32.703Z,1015.81
2019-02-16T04:19:31.684Z,1015.76
2019-02-16T04:20:32.707Z,1015.82
2019-02-16T04:21:32.661Z,1015.79
2019-02-16T04:22:32.672Z,1015.80
2019-02-16T04:23:31.643Z,1015.80
2019-02-16T04:24:32.642Z,1015.80
2019-02-16T04:25:32.652Z,1015.78
2019-02-16T04:26:32.620Z,1015.80
2019-02-16T04:27:32.598Z,1015.81
2019-02-16T04:28:32.584Z,1015.75
2019-02-16T04:29:32.577Z,1015.74
2019-02-16T04:30:31.606Z,1015.73
2019-02-16T04:31:32.572Z,1015.72
2019-02-16T04:32:32.550Z,1015.73
2019-02-16T04:33:31.545Z,1015.70
2019-02-16T04:34:32.522Z,1015.71
2019-02-16T04:35:31.969Z,1015.73
2019-02-16T04:36:32.510Z,1015.69
2019-02-16T04:37:32.490Z,1015.70
2019-02-16T04:38:32.482Z,1015.70
2019-02-16T04:39:34.421Z,1015.66
2019-02-16T04:40:32.492Z,1015.66
2019-02-16T04:41:32.451Z,1015.67
2019-02-16T04:42:32.446Z,1015.63
2019-02-16T04:43:32.433Z,1015.67
2019-02-16T04:44:32.414Z,1015.63
2019-02-16T04:45:32.438Z,1015.64
2019-02-16T04:46:32.396Z,1015.66
2019-02-16T04:47:31.385Z,1015.60
2019-02-16T04:48:32.368Z,1015.64
2019-02-16T04:49:32.361Z,1015.61
2019-02-16T04:50:32.351Z,1015.58
2019-02-16T04:51:32.376Z,1015.60
2019-02-16T04:52:35.083Z,1015.63
2019-02-16T04:53:32.324Z,1015.57
2019-02-16T04:54:32.301Z,1015.58
2019-02-16T04:55:32.310Z,1015.57
2019-02-16T04:56:31.284Z,1015.56
2019-02-16T04:57:31.305Z,1015.57
2019-02-16T04:58:32.256Z,1015.47
2019-02-16T04:59:32.252Z,1015.48
2019-02-16T05:00:32.241Z,1015.48
2019-02-16T05:01:31.239Z,1015.46
2019-02-16T05:02:32.240Z,1015.49
2019-02-16T05:03:32.206Z,1015.46
2019-02-16T05:04:31.202Z,1015.44
2019-02-16T05:05:32.196Z,1015.45
2019-02-16T05:06:31.170Z,1015.44
2019-02-16T05:07:32.188Z,1015.42
2019-02-16T05:08:32.913Z,1015.43
2019-02-16T05:09:32.142Z,1015.38
2019-02-16T05:10:32.130Z,1015.38
2019-02-16T05:11:32.130Z,1015.39
2019-02-16T05:12:31.113Z,1015.39
2019-02-16T05:13:31.126Z,1015.40
2019-02-16T05:14:32.090Z,1015.34
2019-02-16T05:15:31.099Z,1015.35
2019-02-16T05:16:32.128Z,1015.35
2019-02-16T05:17:32.054Z,1015.36
2019-02-16T05:18:32.043Z,1015.38
2019-02-16T05:19:32.042Z,1015.40
2019-02-16T05:20:32.026Z,1015.36
2019-02-16T05:21:32.064Z,1015.43
2019-02-16T05:22:32.005Z,1015.42
2019-02-16T05:23:31.990Z,1015.39
2019-02-16T05:24:30.981Z,1015.34
2019-02-16T05:25:31.974Z,1015.34
2019-02-16T05:26:31.954Z,1015.36
2019-02-16T05:27:30.976Z,1015.34
2019-02-16T05:28:31.937Z,1015.33
2019-02-16T05:29:31.928Z,1015.33
2019-02-16T05:30:31.916Z,1015.39
2019-02-16T05:31:30.910Z,1015.38
2019-02-16T05:32:33.442Z,1015.37
2019-02-16T05:33:33.401Z,1015.38
2019-02-16T05:34:30.877Z,1015.38
2019-02-16T05:35:31.864Z,1015.36
2019-02-16T05:36:31.852Z,1015.33
2019-02-16T05:37:30.844Z,1015.28
2019-02-16T05:38:31.862Z,1015.34
2019-02-16T05:39:31.815Z,1015.33
2019-02-16T05:40:31.803Z,1015.33
2019-02-16T05:41:30.802Z,1015.27
2019-02-16T05:42:30.816Z,1015.29
2019-02-16T05:43:33.394Z,1015.29
2019-02-16T05:44:31.761Z,1015.31
2019-02-16T05:45:30.790Z,1015.28
2019-02-16T05:46:30.741Z,1015.29
2019-02-16T05:47:30.733Z,1015.30
2019-02-16T05:48:31.724Z,1015.28
2019-02-16T05:49:31.709Z,1015.31
2019-02-16T05:50:31.750Z,1015.32
2019-02-16T05:51:31.686Z,1015.34
2019-02-16T05:52:31.707Z,1015.35
2019-02-16T05:53:31.673Z,1015.32
2019-02-16T05:54:31.666Z,1015.30
2019-02-16T05:55:31.811Z,1015.32
2019-02-16T05:57:30.617Z,1015.31
2019-02-16T05:58:31.610Z,1015.32
2019-02-16T05:59:31.601Z,1015.32
2019-02-16T06:00:31.609Z,1015.36
2019-02-16T06:01:32.440Z,1015.39
2019-02-16T06:02:31.567Z,1015.38
2019-02-16T06:03:31.560Z,1015.41
2019-02-16T06:04:31.542Z,1015.38
2019-02-16T06:05:31.534Z,1015.39
2019-02-16T06:06:31.540Z,1015.42
2019-02-16T06:07:31.543Z,1015.44
2019-02-16T06:08:31.500Z,1015.38
2019-02-16T06:09:30.494Z,1015.39
2019-02-16T06:10:30.488Z,1015.36
2019-02-16T06:11:31.474Z,1015.32
2019-02-16T06:12:30.461Z,1015.34
2019-02-16T06:13:31.474Z,1015.35
2019-02-16T06:14:30.436Z,1015.35
2019-02-16T06:15:31.478Z,1015.31
2019-02-16T06:16:31.417Z,1015.32
2019-02-16T06:17:30.410Z,1015.35
2019-02-16T06:19:30.383Z,1015.35
2019-02-16T06:20:31.370Z,1015.33
2019-02-16T06:21:31.392Z,1015.33
2019-02-16T06:22:31.350Z,1015.33
2019-02-16T06:23:31.347Z,1015.33
2019-02-16T06:25:30.363Z,1015.30
2019-02-16T06:27:30.323Z,1015.32
2019-02-16T06:28:30.289Z,1015.32
2019-02-16T06:29:30.281Z,1015.33
2019-02-16T06:30:30.265Z,1015.35
2019-02-16T06:31:31.254Z,1015.39
2019-02-16T06:32:32.878Z,1015.34
2019-02-16T06:33:31.264Z,1015.30
2019-02-16T06:34:32.429Z,1015.35
2019-02-16T06:35:32.878Z,1015.34
2019-02-16T06:36:31.206Z,1015.33
2019-02-16T06:37:31.184Z,1015.29
2019-02-16T06:38:31.181Z,1015.34
2019-02-16T06:39:31.170Z,1015.30
2019-02-16T06:40:32.920Z,1015.26
2019-02-16T06:41:31.144Z,1015.25
2019-02-16T06:42:31.130Z,1015.27
2019-02-16T06:43:31.879Z,1015.29
2019-02-16T06:44:30.108Z,1015.26
2019-02-16T06:45:31.105Z,1015.26
2019-02-16T06:46:31.130Z,1015.26
2019-02-16T06:47:31.084Z,1015.27
2019-02-16T06:48:30.085Z,1015.28
2019-02-16T06:49:30.055Z,1015.29
2019-02-16T06:50:36.684Z,1015.28
2019-02-16T06:51:31.035Z,1015.26
2019-02-16T06:52:31.051Z,1015.34
2019-02-16T06:53:31.008Z,1015.31
2019-02-16T06:54:30.003Z,1015.28
2019-02-16T06:55:31.012Z,1015.31
2019-02-16T06:56:30.012Z,1015.27
2019-02-16T06:57:33.874Z,1015.33
2019-02-16T06:58:29.956Z,1015.29
2019-02-16T06:59:30.949Z,1015.31
2019-02-16T07:00:30.946Z,1015.34
2019-02-16T07:01:30.952Z,1015.38
2019-02-16T07:02:29.917Z,1015.43
2019-02-16T07:03:30.908Z,1015.43
2019-02-16T07:04:29.899Z,1015.45
2019-02-16T07:05:29.888Z,1015.39
2019-02-16T07:07:29.914Z,1015.36
2019-02-16T07:08:30.852Z,1015.37
2019-02-16T07:09:30.840Z,1015.31
2019-02-16T07:10:30.831Z,1015.30
2019-02-16T07:11:30.838Z,1015.31
2019-02-16T07:13:29.799Z,1015.33
2019-02-16T07:14:33.368Z,1015.38
2019-02-16T07:15:30.776Z,1015.35
2019-02-16T07:16:31.421Z,1015.35
2019-02-16T07:17:30.744Z,1015.34
2019-02-16T07:19:32.364Z,1015.34
2019-02-16T07:20:29.717Z,1015.35
2019-02-16T07:21:29.710Z,1015.38
2019-02-16T07:22:29.732Z,1015.36
2019-02-16T07:23:30.686Z,1015.37
2019-02-16T07:24:30.672Z,1015.35
2019-02-16T07:25:30.662Z,1015.35
2019-02-16T07:26:30.656Z,1015.36
2019-02-16T07:28:29.627Z,1015.33
2019-02-16T07:29:29.622Z,1015.32
2019-02-16T07:30:30.358Z,1015.35
2019-02-16T07:31:30.603Z,1015.31
2019-02-16T07:32:30.594Z,1015.35
2019-02-16T07:33:32.400Z,1015.32
2019-02-16T07:34:30.566Z,1015.26
2019-02-16T07:35:30.566Z,1015.28
2019-02-16T07:36:30.573Z,1015.23
2019-02-16T07:37:29.534Z,1015.27
2019-02-16T07:38:30.530Z,1015.26
2019-02-16T07:39:29.518Z,1015.26
2019-02-16T07:40:29.500Z,1015.25
2019-02-16T07:41:30.519Z,1015.26
2019-02-16T07:42:30.487Z,1015.25
2019-02-16T07:43:29.478Z,1015.28
2019-02-16T07:44:30.467Z,1015.28
2019-02-16T07:45:29.454Z,1015.31
2019-02-16T07:46:29.442Z,1015.27
2019-02-16T07:47:30.462Z,1015.29
2019-02-16T07:48:29.414Z,1015.28
2019-02-16T07:49:30.400Z,1015.27
2019-02-16T07:50:30.394Z,1015.27
2019-02-16T07:51:30.374Z,1015.28
2019-02-16T07:52:29.405Z,1015.30
2019-02-16T07:53:31.545Z,1015.25
2019-02-16T07:54:32.858Z,1015.32
2019-02-16T07:56:29.858Z,1015.34
2019-02-16T07:57:30.433Z,1015.29
2019-02-16T07:58:30.301Z,1015.28
2019-02-16T07:59:30.294Z,1015.33
2019-02-16T08:00:30.279Z,1015.26
2019-02-16T08:01:30.271Z,1015.24
2019-02-16T08:02:30.266Z,1015.30
2019-02-16T08:03:30.292Z,1015.30
2019-02-16T08:04:30.244Z,1015.31
2019-02-16T08:05:30.227Z,1015.30
2019-02-16T08:06:29.236Z,1015.31
2019-02-16T08:07:29.218Z,1015.32
2019-02-16T08:08:30.197Z,1015.28
2019-02-16T08:09:30.231Z,1015.34
2019-02-16T08:10:30.176Z,1015.36
2019-02-16T08:11:32.849Z,1015.33
2019-02-16T08:12:30.158Z,1015.30
2019-02-16T08:13:30.138Z,1015.32
2019-02-16T08:14:29.130Z,1015.27
2019-02-16T08:16:29.126Z,1015.30
2019-02-16T08:17:30.099Z,1015.31
2019-02-16T08:18:30.085Z,1015.29
2019-02-16T08:19:30.072Z,1015.28
2019-02-16T08:20:29.083Z,1015.29
2019-02-16T08:21:30.111Z,1015.31
2019-02-16T08:22:30.047Z,1015.30
2019-02-16T08:23:29.039Z,1015.26
2019-02-16T08:24:30.028Z,1015.26
2019-02-16T08:25:30.006Z,1015.24
2019-02-16T08:26:30.034Z,1015.16
2019-02-16T08:27:29.995Z,1015.20
2019-02-16T08:28:29.979Z,1015.21
2019-02-16T08:29:28.970Z,1015.20
2019-02-16T08:30:29.974Z,1015.22
2019-02-16T08:31:28.955Z,1015.23
2019-02-16T08:32:29.973Z,1015.22
2019-02-16T08:33:29.939Z,1015.24
2019-02-16T08:34:29.914Z,1015.20
2019-02-16T08:35:29.903Z,1015.24
2019-02-16T08:36:28.899Z,1015.22
2019-02-16T08:37:29.923Z,1015.20
2019-02-16T08:38:28.869Z,1015.18
2019-02-16T08:39:28.859Z,1015.19
2019-02-16T08:40:29.852Z,1015.20
2019-02-16T08:41:28.837Z,1015.19
2019-02-16T08:42:28.835Z,1015.16
2019-02-16T08:43:29.823Z,1015.15
2019-02-16T08:44:29.811Z,1015.11
2019-02-16T08:45:29.792Z,1015.14
2019-02-16T08:46:29.775Z,1015.17
2019-02-16T08:47:28.775Z,1015.14
2019-02-16T08:48:29.769Z,1015.20
2019-02-16T08:49:28.775Z,1015.19
2019-02-16T08:50:29.738Z,1015.18
2019-02-16T08:51:28.729Z,1015.17
2019-02-16T08:52:29.723Z,1015.19
2019-02-16T08:53:29.703Z,1015.17
2019-02-16T08:54:29.728Z,1015.19
2019-02-16T08:55:29.695Z,1015.20
2019-02-16T08:56:29.687Z,1015.18
2019-02-16T08:57:29.671Z,1015.14
2019-02-16T08:58:29.658Z,1015.13
2019-02-16T08:59:29.641Z,1015.09
2019-02-16T09:00:28.655Z,1015.04
2019-02-16T09:01:29.630Z,1015.07
2019-02-16T09:02:29.617Z,1015.07
2019-02-16T09:03:29.603Z,1015.06
2019-02-16T09:04:29.589Z,1015.04
2019-02-16T09:05:29.599Z,1015.04
2019-02-16T09:06:28.567Z,1015.02
2019-02-16T09:07:29.550Z,1015.05
2019-02-16T09:08:28.551Z,1015.03
2019-02-16T09:09:28.531Z,1015.02
2019-02-16T09:10:28.564Z,1015.03
2019-02-16T09:11:29.509Z,1015.05
2019-02-16T09:12:29.498Z,1014.98
2019-02-16T09:13:29.523Z,1014.96
2019-02-16T09:14:29.478Z,1015.01
2019-02-16T09:15:29.467Z,1015.04
2019-02-16T09:16:29.460Z,1014.99
2019-02-16T09:17:29.445Z,1014.97
2019-02-16T09:18:29.445Z,1014.97
2019-02-16T09:19:28.427Z,1015.01
2019-02-16T09:20:29.412Z,1014.90
2019-02-16T09:21:28.399Z,1014.94
2019-02-16T09:22:29.387Z,1014.96
2019-02-16T09:23:28.393Z,1014.96
2019-02-16T09:24:29.417Z,1014.93
2019-02-16T09:25:29.357Z,1014.99
2019-02-16T09:26:29.348Z,1014.91
2019-02-16T09:27:28.343Z,1014.92
2019-02-16T09:28:29.820Z,1014.88
2019-02-16T09:29:29.350Z,1014.86
2019-02-16T09:30:29.311Z,1014.92
2019-02-16T09:31:29.291Z,1014.93
2019-02-16T09:32:29.289Z,1014.93
2019-02-16T09:33:28.273Z,1014.90
2019-02-16T09:34:29.295Z,1014.89
2019-02-16T09:35:29.257Z,1014.89
2019-02-16T09:36:29.249Z,1014.85
2019-02-16T09:37:28.869Z,1014.89
2019-02-16T09:38:29.271Z,1014.86
2019-02-16T09:39:29.211Z,1014.87
2019-02-16T09:40:29.197Z,1014.90
2019-02-16T09:41:29.183Z,1014.90
2019-02-16T09:42:29.201Z,1014.87
2019-02-16T09:43:29.173Z,1014.85
2019-02-16T09:44:29.365Z,1014.91
2019-02-16T09:45:29.144Z,1014.87
2019-02-16T09:46:29.140Z,1014.86
2019-02-16T09:47:29.121Z,1014.89
2019-02-16T09:48:28.111Z,1014.89
2019-02-16T09:49:29.129Z,1014.86
2019-02-16T09:50:28.317Z,1014.89
2019-02-16T09:51:28.072Z,1014.87
2019-02-16T09:52:29.066Z,1014.88
2019-02-16T09:53:29.053Z,1014.90
2019-02-16T09:54:29.046Z,1014.87
2019-02-16T09:55:28.080Z,1014.85
2019-02-16T09:56:29.027Z,1014.87
2019-02-16T09:57:29.028Z,1014.87
2019-02-16T09:58:28.999Z,1014.91
2019-02-16T09:59:28.999Z,1014.87
2019-02-16T10:00:29.011Z,1014.87
2019-02-16T10:01:29.019Z,1014.85
2019-02-16T10:02:27.961Z,1014.85
2019-02-16T10:03:27.943Z,1014.80
2019-02-16T10:04:29.840Z,1014.84
2019-02-16T10:05:28.945Z,1014.85
2019-02-16T10:06:28.914Z,1014.78
2019-02-16T10:07:30.503Z,1014.76
2019-02-16T10:08:27.897Z,1014.73
2019-02-16T10:09:28.891Z,1014.75
2019-02-16T10:11:27.853Z,1014.75
2019-02-16T10:12:28.854Z,1014.76
2019-02-16T10:13:31.805Z,1014.77
2019-02-16T10:14:28.847Z,1014.74
2019-02-16T10:15:27.820Z,1014.77
2019-02-16T10:16:28.805Z,1014.75
2019-02-16T10:17:28.797Z,1014.84
2019-02-16T10:18:28.803Z,1014.74
2019-02-16T10:19:28.794Z,1014.72
2019-02-16T10:20:31.307Z,1014.73
2019-02-16T10:21:28.746Z,1014.70
2019-02-16T10:22:28.741Z,1014.64
2019-02-16T10:23:28.721Z,1014.69
2019-02-16T10:24:28.750Z,1014.70
2019-02-16T10:25:28.708Z,1014.63
2019-02-16T10:26:28.720Z,1014.62
2019-02-16T10:27:27.681Z,1014.65
2019-02-16T10:28:28.674Z,1014.62
2019-02-16T10:29:28.659Z,1014.60
2019-02-16T10:30:29.306Z,1014.67
2019-02-16T10:31:28.646Z,1014.66
2019-02-16T10:32:28.679Z,1014.65
2019-02-16T10:33:27.612Z,1014.65
2019-02-16T10:34:28.608Z,1014.70
2019-02-16T10:35:28.596Z,1014.74
2019-02-16T10:36:29.262Z,1014.67
2019-02-16T10:37:27.589Z,1014.65
2019-02-16T10:38:28.557Z,1014.65
2019-02-16T10:39:28.550Z,1014.65
2019-02-16T10:40:28.530Z,1014.61
2019-02-16T10:41:28.555Z,1014.60
2019-02-16T10:42:28.521Z,1014.55
2019-02-16T10:43:27.517Z,1014.56
2019-02-16T10:44:28.507Z,1014.55
2019-02-16T10:45:28.477Z,1014.56
2019-02-16T10:46:28.471Z,1014.56
2019-02-16T10:47:28.494Z,1014.52
2019-02-16T10:48:28.446Z,1014.50
2019-02-16T10:49:28.435Z,1014.48
2019-02-16T10:50:28.428Z,1014.48
2019-02-16T10:51:28.417Z,1014.47
2019-02-16T10:52:27.412Z,1014.41
2019-02-16T10:53:28.424Z,1014.42
2019-02-16T10:54:29.722Z,1014.41
2019-02-16T10:55:28.370Z,1014.38
2019-02-16T10:56:28.356Z,1014.39
2019-02-16T10:57:27.353Z,1014.34
2019-02-16T10:58:31.802Z,1014.33
2019-02-16T10:59:28.333Z,1014.31
2019-02-16T11:00:28.312Z,1014.34
2019-02-16T11:01:28.306Z,1014.33
2019-02-16T11:02:28.304Z,1014.32
2019-02-16T11:03:31.297Z,1014.33
2019-02-16T11:04:27.281Z,1014.29
2019-02-16T11:05:28.272Z,1014.36
2019-02-16T11:06:28.257Z,1014.35
2019-02-16T11:07:27.239Z,1014.32
2019-02-16T11:08:27.228Z,1014.34
2019-02-16T11:09:27.250Z,1014.30
2019-02-16T11:10:28.212Z,1014.26
2019-02-16T11:11:28.196Z,1014.30
2019-02-16T11:12:28.189Z,1014.24
2019-02-16T11:13:30.797Z,1014.26
2019-02-16T11:14:28.162Z,1014.29
2019-02-16T11:15:28.201Z,1014.26
2019-02-16T11:16:28.157Z,1014.25
2019-02-16T11:17:28.131Z,1014.23
2019-02-16T11:18:28.115Z,1014.21
2019-02-16T11:19:28.109Z,1014.21
2019-02-16T11:20:28.100Z,1014.20
2019-02-16T11:21:28.128Z,1014.24
2019-02-16T11:22:28.076Z,1014.26
2019-02-16T11:23:28.114Z,1014.21
2019-02-16T11:24:35.848Z,1014.18
2019-02-16T11:25:28.043Z,1014.23
2019-02-16T11:26:28.028Z,1014.18
2019-02-16T11:27:28.019Z,1014.23
2019-02-16T11:28:27.013Z,1014.18
2019-02-16T11:29:28.026Z,1014.18
2019-02-16T11:30:27.999Z,1014.10
2019-02-16T11:31:27.979Z,1014.14
2019-02-16T11:32:27.966Z,1014.14
2019-02-16T11:33:26.959Z,1014.11
2019-02-16T11:34:27.969Z,1014.09
2019-02-16T11:35:27.962Z,1014.08
2019-02-16T11:36:27.916Z,1014.07
2019-02-16T11:37:27.919Z,1014.09
2019-02-16T11:38:27.907Z,1014.12
2019-02-16T11:39:26.890Z,1014.09
2019-02-16T11:40:27.896Z,1014.11
2019-02-16T11:41:27.861Z,1014.08
2019-02-16T11:42:27.866Z,1014.08
2019-02-16T11:43:27.844Z,1014.07
2019-02-16T11:44:27.782Z,1014.03
2019-02-16T11:45:26.824Z,1014.02
2019-02-16T11:46:27.819Z,1014.04
2019-02-16T11:47:27.802Z,1014.01
2019-02-16T11:48:27.790Z,1014.02
2019-02-16T11:49:27.819Z,1013.92
2019-02-16T11:50:27.815Z,1013.94
2019-02-16T11:51:27.756Z,1013.94
2019-02-16T11:52:27.744Z,1013.93
2019-02-16T11:53:27.733Z,1013.93
2019-02-16T11:54:26.723Z,1013.92
2019-02-16T11:55:27.722Z,1013.92
2019-02-16T11:56:27.729Z,1013.92
2019-02-16T11:57:27.686Z,1013.94
2019-02-16T11:58:26.683Z,1013.87
2019-02-16T11:59:27.674Z,1013.88
2019-02-16T12:00:27.656Z,1013.86
2019-02-16T12:01:27.658Z,1013.89
2019-02-16T12:02:27.659Z,1013.90
2019-02-16T12:03:27.625Z,1013.84
2019-02-16T12:04:27.610Z,1013.82
2019-02-16T12:05:30.280Z,1013.83
2019-02-16T12:06:27.624Z,1013.80
2019-02-16T12:07:27.575Z,1013.79
2019-02-16T12:08:27.563Z,1013.76
2019-02-16T12:09:27.559Z,1013.78
2019-02-16T12:10:27.544Z,1013.73
2019-02-16T12:11:27.531Z,1013.75
2019-02-16T12:12:27.554Z,1013.69
2019-02-16T12:13:27.515Z,1013.69
2019-02-16T12:14:27.521Z,1013.67
2019-02-16T12:15:27.495Z,1013.67
2019-02-16T12:16:27.477Z,1013.64
2019-02-16T12:17:27.494Z,1013.64
2019-02-16T12:18:27.458Z,1013.64
2019-02-16T12:19:27.455Z,1013.65
2019-02-16T12:20:33.482Z,1013.66